sensor_id;sensor_type;location;lat;lon;timestamp;P1;durP1;ratioP1;P2;durP2;ratioP2
41263;SDS011;26998;48.714;9.414;2023-11-18T00:01:06;2.00;;;1.50;;
41263;SDS011;26998;48.714;9.414;2023-11-18T00:03:33;6.38;;;1.73;;
41263;SDS011;26998;48.714;9.414;2023-11-18T00:05:59;2.95;;;2.30;;
41263;SDS011;26998;48.714;9.414;2023-11-18T00:08:25;2.08;;;1.70;;
41263;SDS011;26998;48.714;9.414;2023-11-18T00:10:52;2.60;;;1.77;;
41263;SDS011;26998;48.714;9.414;2023-11-18T00:13:19;2.38;;;2.00;;
41263;SDS011;26998;48.714;9.414;2023-11-18T00:15:45;3.42;;;2.28;;
41263;SDS011;26998;48.714;9.414;2023-11-18T00:18:12;4.53;;;2.92;;
41263;SDS011;26998;48.714;9.414;2023-11-18T00:20:39;6.60;;;3.42;;
41263;SDS011;26998;48.714;9.414;2023-11-18T00:23:05;4.07;;;2.60;;
41263;SDS011;26998;48.714;9.414;2023-11-18T00:25:32;3.97;;;2.25;;
41263;SDS011;26998;48.714;9.414;2023-11-18T00:27:58;2.53;;;1.98;;
41263;SDS011;26998;48.714;9.414;2023-11-18T00:30:25;3.20;;;2.22;;
41263;SDS011;26998;48.714;9.414;2023-11-18T00:32:51;4.05;;;2.22;;
41263;SDS011;26998;48.714;9.414;2023-11-18T00:35:18;2.92;;;1.80;;
41263;SDS011;26998;48.714;9.414;2023-11-18T00:37:45;3.78;;;2.65;;
41263;SDS011;26998;48.714;9.414;2023-11-18T00:40:12;2.88;;;2.08;;
41263;SDS011;26998;48.714;9.414;2023-11-18T00:42:38;2.90;;;2.28;;
41263;SDS011;26998;48.714;9.414;2023-11-18T00:45:05;3.10;;;2.53;;
41263;SDS011;26998;48.714;9.414;2023-11-18T00:47:32;2.70;;;2.20;;
41263;SDS011;26998;48.714;9.414;2023-11-18T00:49:58;2.40;;;2.20;;
41263;SDS011;26998;48.714;9.414;2023-11-18T00:52:25;2.00;;;1.70;;
41263;SDS011;26998;48.714;9.414;2023-11-18T00:54:52;3.22;;;2.13;;
41263;SDS011;26998;48.714;9.414;2023-11-18T00:57:18;2.92;;;2.05;;
41263;SDS011;26998;48.714;9.414;2023-11-18T00:59:44;2.85;;;2.25;;
41263;SDS011;26998;48.714;9.414;2023-11-18T01:02:11;1.95;;;1.50;;
41263;SDS011;26998;48.714;9.414;2023-11-18T01:04:38;3.03;;;2.28;;
41263;SDS011;26998;48.714;9.414;2023-11-18T01:07:04;2.78;;;1.90;;
41263;SDS011;26998;48.714;9.414;2023-11-18T01:09:31;2.17;;;1.85;;
41263;SDS011;26998;48.714;9.414;2023-11-18T01:11:58;3.22;;;2.20;;
41263;SDS011;26998;48.714;9.414;2023-11-18T01:14:34;2.35;;;1.98;;
41263;SDS011;26998;48.714;9.414;2023-11-18T01:17:05;3.58;;;2.55;;
41263;SDS011;26998;48.714;9.414;2023-11-18T01:19:32;2.05;;;1.33;;
41263;SDS011;26998;48.714;9.414;2023-11-18T01:21:58;2.10;;;1.40;;
41263;SDS011;26998;48.714;9.414;2023-11-18T01:24:28;2.42;;;1.90;;
41263;SDS011;26998;48.714;9.414;2023-11-18T01:26:54;3.28;;;1.75;;
41263;SDS011;26998;48.714;9.414;2023-11-18T01:29:21;4.20;;;2.05;;
41263;SDS011;26998;48.714;9.414;2023-11-18T01:31:47;2.95;;;2.15;;
41263;SDS011;26998;48.714;9.414;2023-11-18T01:34:18;2.92;;;1.83;;
41263;SDS011;26998;48.714;9.414;2023-11-18T01:36:45;2.25;;;1.92;;
41263;SDS011;26998;48.714;9.414;2023-11-18T01:39:12;4.70;;;1.73;;
41263;SDS011;26998;48.714;9.414;2023-11-18T01:41:38;2.90;;;2.28;;
41263;SDS011;26998;48.714;9.414;2023-11-18T01:44:05;2.28;;;2.10;;
41263;SDS011;26998;48.714;9.414;2023-11-18T01:46:35;2.17;;;1.80;;
41263;SDS011;26998;48.714;9.414;2023-11-18T01:49:03;3.22;;;2.50;;
41263;SDS011;26998;48.714;9.414;2023-11-18T01:51:30;3.03;;;2.28;;
41263;SDS011;26998;48.714;9.414;2023-11-18T01:53:57;4.00;;;2.33;;
41263;SDS011;26998;48.714;9.414;2023-11-18T01:56:27;2.78;;;1.73;;
41263;SDS011;26998;48.714;9.414;2023-11-18T01:58:54;1.92;;;1.73;;
41263;SDS011;26998;48.714;9.414;2023-11-18T02:01:21;2.75;;;1.88;;
41263;SDS011;26998;48.714;9.414;2023-11-18T02:03:48;1.83;;;1.40;;
41263;SDS011;26998;48.714;9.414;2023-11-18T02:06:15;2.95;;;2.08;;
41263;SDS011;26998;48.714;9.414;2023-11-18T02:08:42;3.10;;;1.92;;
41263;SDS011;26998;48.714;9.414;2023-11-18T02:11:20;3.08;;;1.58;;
41263;SDS011;26998;48.714;9.414;2023-11-18T02:13:54;3.42;;;1.90;;
41263;SDS011;26998;48.714;9.414;2023-11-18T02:16:24;1.65;;;1.40;;
41263;SDS011;26998;48.714;9.414;2023-11-18T02:18:52;3.47;;;2.13;;
41263;SDS011;26998;48.714;9.414;2023-11-18T02:21:20;4.57;;;1.85;;
41263;SDS011;26998;48.714;9.414;2023-11-18T02:23:48;2.80;;;2.13;;
41263;SDS011;26998;48.714;9.414;2023-11-18T02:26:20;3.53;;;2.35;;
41263;SDS011;26998;48.714;9.414;2023-11-18T02:28:49;4.30;;;2.50;;
41263;SDS011;26998;48.714;9.414;2023-11-18T02:31:16;5.18;;;2.45;;
41263;SDS011;26998;48.714;9.414;2023-11-18T02:33:54;3.00;;;2.13;;
41263;SDS011;26998;48.714;9.414;2023-11-18T02:36:35;3.40;;;2.40;;
41263;SDS011;26998;48.714;9.414;2023-11-18T02:39:12;2.78;;;2.30;;
41263;SDS011;26998;48.714;9.414;2023-11-18T02:41:51;3.70;;;2.20;;
41263;SDS011;26998;48.714;9.414;2023-11-18T02:44:21;2.42;;;2.15;;
41263;SDS011;26998;48.714;9.414;2023-11-18T02:46:49;3.20;;;2.00;;
41263;SDS011;26998;48.714;9.414;2023-11-18T02:49:16;5.30;;;2.33;;
41263;SDS011;26998;48.714;9.414;2023-11-18T02:51:43;2.40;;;1.83;;
41263;SDS011;26998;48.714;9.414;2023-11-18T02:54:09;3.58;;;2.28;;
41263;SDS011;26998;48.714;9.414;2023-11-18T02:56:36;2.20;;;1.98;;
41263;SDS011;26998;48.714;9.414;2023-11-18T02:59:03;3.45;;;2.38;;
41263;SDS011;26998;48.714;9.414;2023-11-18T03:01:30;2.42;;;1.75;;
41263;SDS011;26998;48.714;9.414;2023-11-18T03:03:57;2.65;;;2.17;;
41263;SDS011;26998;48.714;9.414;2023-11-18T03:06:23;2.60;;;2.08;;
41263;SDS011;26998;48.714;9.414;2023-11-18T03:08:50;3.78;;;2.78;;
41263;SDS011;26998;48.714;9.414;2023-11-18T03:11:16;3.50;;;2.65;;
41263;SDS011;26998;48.714;9.414;2023-11-18T03:13:43;4.18;;;2.42;;
41263;SDS011;26998;48.714;9.414;2023-11-18T03:16:09;2.33;;;1.80;;
41263;SDS011;26998;48.714;9.414;2023-11-18T03:18:37;3.20;;;2.15;;
41263;SDS011;26998;48.714;9.414;2023-11-18T03:21:05;3.45;;;2.38;;
41263;SDS011;26998;48.714;9.414;2023-11-18T03:23:36;4.55;;;2.88;;
41263;SDS011;26998;48.714;9.414;2023-11-18T03:26:03;3.60;;;2.60;;
41263;SDS011;26998;48.714;9.414;2023-11-18T03:28:30;3.92;;;2.78;;
41263;SDS011;26998;48.714;9.414;2023-11-18T03:30:56;5.15;;;2.78;;
41263;SDS011;26998;48.714;9.414;2023-11-18T03:33:23;3.53;;;2.88;;
41263;SDS011;26998;48.714;9.414;2023-11-18T03:35:49;4.07;;;2.97;;
41263;SDS011;26998;48.714;9.414;2023-11-18T03:38:16;3.50;;;2.13;;
41263;SDS011;26998;48.714;9.414;2023-11-18T03:40:43;3.08;;;2.50;;
41263;SDS011;26998;48.714;9.414;2023-11-18T03:43:10;3.05;;;2.47;;
41263;SDS011;26998;48.714;9.414;2023-11-18T03:45:40;3.10;;;2.50;;
41263;SDS011;26998;48.714;9.414;2023-11-18T03:48:07;4.63;;;2.70;;
41263;SDS011;26998;48.714;9.414;2023-11-18T03:50:34;3.03;;;2.30;;
41263;SDS011;26998;48.714;9.414;2023-11-18T03:53:00;4.03;;;2.38;;
41263;SDS011;26998;48.714;9.414;2023-11-18T03:55:27;2.75;;;2.13;;
41263;SDS011;26998;48.714;9.414;2023-11-18T03:57:54;3.40;;;2.67;;
41263;SDS011;26998;48.714;9.414;2023-11-18T04:00:21;3.60;;;2.50;;
41263;SDS011;26998;48.714;9.414;2023-11-18T04:02:48;2.78;;;1.98;;
41263;SDS011;26998;48.714;9.414;2023-11-18T04:05:14;5.45;;;2.38;;
41263;SDS011;26998;48.714;9.414;2023-11-18T04:07:42;5.47;;;2.80;;
41263;SDS011;26998;48.714;9.414;2023-11-18T04:10:09;5.35;;;2.40;;
41263;SDS011;26998;48.714;9.414;2023-11-18T04:12:36;3.45;;;2.10;;
41263;SDS011;26998;48.714;9.414;2023-11-18T04:15:03;2.42;;;2.22;;
41263;SDS011;26998;48.714;9.414;2023-11-18T04:17:31;3.08;;;2.40;;
41263;SDS011;26998;48.714;9.414;2023-11-18T04:19:58;4.18;;;2.63;;
41263;SDS011;26998;48.714;9.414;2023-11-18T04:22:24;3.58;;;1.98;;
41263;SDS011;26998;48.714;9.414;2023-11-18T04:24:51;2.65;;;2.10;;
41263;SDS011;26998;48.714;9.414;2023-11-18T04:27:17;2.50;;;2.10;;
41263;SDS011;26998;48.714;9.414;2023-11-18T04:29:44;4.05;;;2.80;;
41263;SDS011;26998;48.714;9.414;2023-11-18T04:32:10;4.65;;;2.58;;
41263;SDS011;26998;48.714;9.414;2023-11-18T04:34:37;2.25;;;1.95;;
41263;SDS011;26998;48.714;9.414;2023-11-18T04:37:03;3.55;;;2.17;;
41263;SDS011;26998;48.714;9.414;2023-11-18T04:39:33;3.25;;;2.65;;
41263;SDS011;26998;48.714;9.414;2023-11-18T04:42:00;3.80;;;2.38;;
41263;SDS011;26998;48.714;9.414;2023-11-18T04:44:27;3.65;;;2.22;;
41263;SDS011;26998;48.714;9.414;2023-11-18T04:46:53;2.80;;;1.98;;
41263;SDS011;26998;48.714;9.414;2023-11-18T04:49:20;4.43;;;2.45;;
41263;SDS011;26998;48.714;9.414;2023-11-18T04:51:46;3.22;;;2.55;;
41263;SDS011;26998;48.714;9.414;2023-11-18T04:54:13;3.80;;;2.30;;
41263;SDS011;26998;48.714;9.414;2023-11-18T04:56:40;4.30;;;2.60;;
41263;SDS011;26998;48.714;9.414;2023-11-18T04:59:07;4.07;;;3.15;;
41263;SDS011;26998;48.714;9.414;2023-11-18T05:01:34;2.15;;;1.95;;
41263;SDS011;26998;48.714;9.414;2023-11-18T05:04:00;3.85;;;2.42;;
41263;SDS011;26998;48.714;9.414;2023-11-18T05:06:27;3.13;;;2.45;;
41263;SDS011;26998;48.714;9.414;2023-11-18T05:08:53;3.00;;;2.28;;
41263;SDS011;26998;48.714;9.414;2023-11-18T05:11:20;4.18;;;2.50;;
41263;SDS011;26998;48.714;9.414;2023-11-18T05:13:47;2.88;;;2.03;;
41263;SDS011;26998;48.714;9.414;2023-11-18T05:16:13;4.00;;;2.20;;
41263;SDS011;26998;48.714;9.414;2023-11-18T05:18:40;2.55;;;2.03;;
41263;SDS011;26998;48.714;9.414;2023-11-18T05:21:08;4.05;;;2.53;;
41263;SDS011;26998;48.714;9.414;2023-11-18T05:23:34;4.50;;;2.30;;
41263;SDS011;26998;48.714;9.414;2023-11-18T05:26:01;2.97;;;2.15;;
41263;SDS011;26998;48.714;9.414;2023-11-18T05:28:28;4.45;;;2.47;;
41263;SDS011;26998;48.714;9.414;2023-11-18T05:30:54;3.33;;;2.53;;
41263;SDS011;26998;48.714;9.414;2023-11-18T05:33:21;3.03;;;1.83;;
41263;SDS011;26998;48.714;9.414;2023-11-18T05:35:47;4.28;;;2.70;;
41263;SDS011;26998;48.714;9.414;2023-11-18T05:38:17;3.10;;;2.08;;
41263;SDS011;26998;48.714;9.414;2023-11-18T05:40:45;2.97;;;2.30;;
41263;SDS011;26998;48.714;9.414;2023-11-18T05:43:11;3.13;;;2.38;;
41263;SDS011;26998;48.714;9.414;2023-11-18T05:45:38;2.58;;;2.00;;
41263;SDS011;26998;48.714;9.414;2023-11-18T05:48:05;5.70;;;2.80;;
41263;SDS011;26998;48.714;9.414;2023-11-18T05:50:31;2.72;;;2.50;;
41263;SDS011;26998;48.714;9.414;2023-11-18T05:52:58;3.30;;;2.65;;
41263;SDS011;26998;48.714;9.414;2023-11-18T05:55:24;4.85;;;2.53;;
41263;SDS011;26998;48.714;9.414;2023-11-18T05:57:51;4.43;;;2.65;;
41263;SDS011;26998;48.714;9.414;2023-11-18T06:00:17;4.15;;;2.63;;
41263;SDS011;26998;48.714;9.414;2023-11-18T06:02:55;3.42;;;2.35;;
41263;SDS011;26998;48.714;9.414;2023-11-18T06:05:22;5.15;;;2.80;;
41263;SDS011;26998;48.714;9.414;2023-11-18T06:07:49;3.83;;;2.33;;
41263;SDS011;26998;48.714;9.414;2023-11-18T06:10:16;2.33;;;2.03;;
41263;SDS011;26998;48.714;9.414;2023-11-18T06:12:42;4.03;;;2.70;;
41263;SDS011;26998;48.714;9.414;2023-11-18T06:15:09;3.05;;;2.70;;
41263;SDS011;26998;48.714;9.414;2023-11-18T06:17:36;4.25;;;2.55;;
41263;SDS011;26998;48.714;9.414;2023-11-18T06:20:03;3.40;;;2.80;;
41263;SDS011;26998;48.714;9.414;2023-11-18T06:22:30;4.70;;;3.05;;
41263;SDS011;26998;48.714;9.414;2023-11-18T06:24:56;4.45;;;2.53;;
41263;SDS011;26998;48.714;9.414;2023-11-18T06:27:23;4.28;;;2.50;;
41263;SDS011;26998;48.714;9.414;2023-11-18T06:29:49;5.22;;;2.88;;
41263;SDS011;26998;48.714;9.414;2023-11-18T06:32:16;4.65;;;2.55;;
41263;SDS011;26998;48.714;9.414;2023-11-18T06:34:42;5.10;;;3.10;;
41263;SDS011;26998;48.714;9.414;2023-11-18T06:37:09;3.30;;;2.85;;
41263;SDS011;26998;48.714;9.414;2023-11-18T06:39:40;3.13;;;2.45;;
41263;SDS011;26998;48.714;9.414;2023-11-18T06:42:07;3.28;;;2.33;;
41263;SDS011;26998;48.714;9.414;2023-11-18T06:44:34;2.92;;;2.38;;
41263;SDS011;26998;48.714;9.414;2023-11-18T06:47:01;3.95;;;2.90;;
41263;SDS011;26998;48.714;9.414;2023-11-18T06:49:27;4.65;;;2.83;;
41263;SDS011;26998;48.714;9.414;2023-11-18T06:51:54;3.95;;;2.85;;
41263;SDS011;26998;48.714;9.414;2023-11-18T06:54:20;5.88;;;3.10;;
41263;SDS011;26998;48.714;9.414;2023-11-18T06:56:47;5.53;;;3.33;;
41263;SDS011;26998;48.714;9.414;2023-11-18T06:59:13;4.22;;;2.38;;
41263;SDS011;26998;48.714;9.414;2023-11-18T07:01:42;4.68;;;2.40;;
41263;SDS011;26998;48.714;9.414;2023-11-18T07:04:09;4.72;;;2.88;;
41263;SDS011;26998;48.714;9.414;2023-11-18T07:06:37;4.03;;;2.33;;
41263;SDS011;26998;48.714;9.414;2023-11-18T07:09:06;3.08;;;2.35;;
41263;SDS011;26998;48.714;9.414;2023-11-18T07:11:33;2.90;;;2.63;;
41263;SDS011;26998;48.714;9.414;2023-11-18T07:13:59;4.70;;;2.90;;
41263;SDS011;26998;48.714;9.414;2023-11-18T07:16:27;3.53;;;2.78;;
41263;SDS011;26998;48.714;9.414;2023-11-18T07:18:53;4.38;;;2.83;;
41263;SDS011;26998;48.714;9.414;2023-11-18T07:21:20;3.20;;;2.60;;
41263;SDS011;26998;48.714;9.414;2023-11-18T07:23:47;4.10;;;2.72;;
41263;SDS011;26998;48.714;9.414;2023-11-18T07:26:13;5.18;;;2.90;;
41263;SDS011;26998;48.714;9.414;2023-11-18T07:28:40;3.22;;;2.38;;
41263;SDS011;26998;48.714;9.414;2023-11-18T07:31:07;4.93;;;3.15;;
41263;SDS011;26998;48.714;9.414;2023-11-18T07:33:34;3.97;;;3.47;;
41263;SDS011;26998;48.714;9.414;2023-11-18T07:36:01;4.15;;;2.40;;
41263;SDS011;26998;48.714;9.414;2023-11-18T07:38:28;4.10;;;2.80;;
41263;SDS011;26998;48.714;9.414;2023-11-18T07:40:55;7.88;;;2.70;;
41263;SDS011;26998;48.714;9.414;2023-11-18T07:43:22;5.60;;;3.30;;
41263;SDS011;26998;48.714;9.414;2023-11-18T07:45:49;2.70;;;2.10;;
41263;SDS011;26998;48.714;9.414;2023-11-18T07:48:15;3.63;;;2.83;;
41263;SDS011;26998;48.714;9.414;2023-11-18T07:50:43;4.70;;;3.22;;
41263;SDS011;26998;48.714;9.414;2023-11-18T07:53:10;3.95;;;2.95;;
41263;SDS011;26998;48.714;9.414;2023-11-18T07:55:37;5.22;;;3.10;;
41263;SDS011;26998;48.714;9.414;2023-11-18T07:58:04;4.03;;;3.13;;
41263;SDS011;26998;48.714;9.414;2023-11-18T08:00:35;2.75;;;2.28;;
41263;SDS011;26998;48.714;9.414;2023-11-18T08:03:02;3.53;;;3.13;;
41263;SDS011;26998;48.714;9.414;2023-11-18T08:05:28;4.63;;;2.75;;
41263;SDS011;26998;48.714;9.414;2023-11-18T08:07:55;3.80;;;3.08;;
41263;SDS011;26998;48.714;9.414;2023-11-18T08:10:31;5.90;;;3.42;;
41263;SDS011;26998;48.714;9.414;2023-11-18T08:12:59;4.38;;;3.10;;
41263;SDS011;26998;48.714;9.414;2023-11-18T08:15:25;4.97;;;3.15;;
41263;SDS011;26998;48.714;9.414;2023-11-18T08:17:57;3.10;;;2.42;;
41263;SDS011;26998;48.714;9.414;2023-11-18T08:20:24;3.22;;;2.42;;
41263;SDS011;26998;48.714;9.414;2023-11-18T08:22:51;4.30;;;2.92;;
41263;SDS011;26998;48.714;9.414;2023-11-18T08:25:18;3.58;;;2.88;;
41263;SDS011;26998;48.714;9.414;2023-11-18T08:27:45;4.97;;;3.42;;
41263;SDS011;26998;48.714;9.414;2023-11-18T08:30:12;5.85;;;3.70;;
41263;SDS011;26998;48.714;9.414;2023-11-18T08:32:39;5.80;;;3.20;;
41263;SDS011;26998;48.714;9.414;2023-11-18T08:35:07;4.78;;;2.90;;
41263;SDS011;26998;48.714;9.414;2023-11-18T08:37:34;5.30;;;2.72;;
41263;SDS011;26998;48.714;9.414;2023-11-18T08:40:04;4.25;;;3.33;;
41263;SDS011;26998;48.714;9.414;2023-11-18T08:42:32;3.13;;;2.80;;
41263;SDS011;26998;48.714;9.414;2023-11-18T08:44:59;4.38;;;3.55;;
41263;SDS011;26998;48.714;9.414;2023-11-18T08:47:29;3.55;;;2.72;;
41263;SDS011;26998;48.714;9.414;2023-11-18T08:49:56;3.78;;;3.30;;
41263;SDS011;26998;48.714;9.414;2023-11-18T08:52:22;4.65;;;2.78;;
41263;SDS011;26998;48.714;9.414;2023-11-18T08:54:49;3.40;;;2.00;;
41263;SDS011;26998;48.714;9.414;2023-11-18T08:57:16;4.22;;;2.72;;
41263;SDS011;26998;48.714;9.414;2023-11-18T08:59:42;3.83;;;2.60;;
41263;SDS011;26998;48.714;9.414;2023-11-18T09:02:09;5.13;;;2.78;;
41263;SDS011;26998;48.714;9.414;2023-11-18T09:04:36;2.15;;;1.92;;
41263;SDS011;26998;48.714;9.414;2023-11-18T09:07:03;4.90;;;2.88;;
41263;SDS011;26998;48.714;9.414;2023-11-18T09:09:29;2.88;;;2.28;;
41263;SDS011;26998;48.714;9.414;2023-11-18T09:11:56;2.88;;;2.05;;
41263;SDS011;26998;48.714;9.414;2023-11-18T09:14:26;2.38;;;1.92;;
41263;SDS011;26998;48.714;9.414;2023-11-18T09:16:53;3.65;;;2.40;;
41263;SDS011;26998;48.714;9.414;2023-11-18T09:19:20;3.15;;;2.65;;
41263;SDS011;26998;48.714;9.414;2023-11-18T09:21:47;3.15;;;2.47;;
41263;SDS011;26998;48.714;9.414;2023-11-18T09:24:15;3.17;;;2.70;;
41263;SDS011;26998;48.714;9.414;2023-11-18T09:26:41;2.97;;;2.60;;
41263;SDS011;26998;48.714;9.414;2023-11-18T09:29:08;4.57;;;2.40;;
41263;SDS011;26998;48.714;9.414;2023-11-18T09:31:35;3.60;;;2.08;;
41263;SDS011;26998;48.714;9.414;2023-11-18T09:34:02;6.10;;;3.00;;
41263;SDS011;26998;48.714;9.414;2023-11-18T09:36:28;2.70;;;1.95;;
41263;SDS011;26998;48.714;9.414;2023-11-18T09:38:55;3.15;;;2.30;;
41263;SDS011;26998;48.714;9.414;2023-11-18T09:41:24;2.85;;;1.85;;
41263;SDS011;26998;48.714;9.414;2023-11-18T09:43:52;3.00;;;2.47;;
41263;SDS011;26998;48.714;9.414;2023-11-18T09:46:23;3.45;;;1.80;;
41263;SDS011;26998;48.714;9.414;2023-11-18T09:48:52;2.53;;;2.30;;
41263;SDS011;26998;48.714;9.414;2023-11-18T09:51:26;2.85;;;2.40;;
41263;SDS011;26998;48.714;9.414;2023-11-18T09:53:54;2.45;;;1.90;;
41263;SDS011;26998;48.714;9.414;2023-11-18T09:56:28;2.17;;;1.98;;
41263;SDS011;26998;48.714;9.414;2023-11-18T09:59:10;2.10;;;1.80;;
41263;SDS011;26998;48.714;9.414;2023-11-18T10:01:38;3.28;;;2.22;;
41263;SDS011;26998;48.714;9.414;2023-11-18T10:04:08;1.63;;;1.52;;
41263;SDS011;26998;48.714;9.414;2023-11-18T10:06:36;2.60;;;1.80;;
41263;SDS011;26998;48.714;9.414;2023-11-18T10:09:05;1.88;;;1.48;;
41263;SDS011;26998;48.714;9.414;2023-11-18T10:11:33;3.05;;;2.05;;
41263;SDS011;26998;48.714;9.414;2023-11-18T10:14:00;2.30;;;1.77;;
41263;SDS011;26998;48.714;9.414;2023-11-18T10:16:27;2.22;;;1.73;;
41263;SDS011;26998;48.714;9.414;2023-11-18T10:18:54;2.25;;;1.80;;
41263;SDS011;26998;48.714;9.414;2023-11-18T10:21:21;2.25;;;1.90;;
41263;SDS011;26998;48.714;9.414;2023-11-18T10:24:01;2.10;;;1.90;;
41263;SDS011;26998;48.714;9.414;2023-11-18T10:26:29;3.40;;;1.55;;
41263;SDS011;26998;48.714;9.414;2023-11-18T10:29:02;3.30;;;1.77;;
41263;SDS011;26998;48.714;9.414;2023-11-18T10:31:29;2.28;;;1.58;;
41263;SDS011;26998;48.714;9.414;2023-11-18T10:33:56;4.32;;;2.30;;
41263;SDS011;26998;48.714;9.414;2023-11-18T10:36:23;2.03;;;1.85;;
41263;SDS011;26998;48.714;9.414;2023-11-18T10:38:51;2.80;;;1.80;;
41263;SDS011;26998;48.714;9.414;2023-11-18T10:41:18;2.20;;;1.95;;
41263;SDS011;26998;48.714;9.414;2023-11-18T10:43:45;2.92;;;1.77;;
41263;SDS011;26998;48.714;9.414;2023-11-18T10:46:12;3.03;;;2.28;;
41263;SDS011;26998;48.714;9.414;2023-11-18T10:48:39;2.63;;;2.05;;
41263;SDS011;26998;48.714;9.414;2023-11-18T10:51:07;1.88;;;1.58;;
41263;SDS011;26998;48.714;9.414;2023-11-18T10:53:36;3.40;;;2.72;;
41263;SDS011;26998;48.714;9.414;2023-11-18T10:56:04;2.47;;;1.70;;
41263;SDS011;26998;48.714;9.414;2023-11-18T10:58:35;2.17;;;1.40;;
41263;SDS011;26998;48.714;9.414;2023-11-18T11:01:02;1.63;;;1.50;;
41263;SDS011;26998;48.714;9.414;2023-11-18T11:03:29;3.78;;;1.77;;
41263;SDS011;26998;48.714;9.414;2023-11-18T11:05:55;3.88;;;2.47;;
41263;SDS011;26998;48.714;9.414;2023-11-18T11:08:22;6.25;;;1.92;;
41263;SDS011;26998;48.714;9.414;2023-11-18T11:11:04;4.55;;;1.88;;
41263;SDS011;26998;48.714;9.414;2023-11-18T11:13:32;3.08;;;2.13;;
41263;SDS011;26998;48.714;9.414;2023-11-18T11:15:59;2.33;;;2.08;;
41263;SDS011;26998;48.714;9.414;2023-11-18T11:18:28;2.25;;;1.95;;
41263;SDS011;26998;48.714;9.414;2023-11-18T11:21:00;3.17;;;2.15;;
41263;SDS011;26998;48.714;9.414;2023-11-18T11:23:45;2.70;;;2.28;;
41263;SDS011;26998;48.714;9.414;2023-11-18T11:26:33;3.83;;;2.00;;
41263;SDS011;26998;48.714;9.414;2023-11-18T11:31:48;3.92;;;2.08;;
41263;SDS011;26998;48.714;9.414;2023-11-18T11:34:26;5.00;;;2.05;;
41263;SDS011;26998;48.714;9.414;2023-11-18T11:36:56;2.13;;;1.65;;
41263;SDS011;26998;48.714;9.414;2023-11-18T11:39:26;1.88;;;1.73;;
41263;SDS011;26998;48.714;9.414;2023-11-18T11:41:53;3.88;;;1.80;;
41263;SDS011;26998;48.714;9.414;2023-11-18T11:44:19;3.72;;;2.35;;
41263;SDS011;26998;48.714;9.414;2023-11-18T11:46:47;2.67;;;2.05;;
41263;SDS011;26998;48.714;9.414;2023-11-18T11:49:15;4.55;;;1.92;;
41263;SDS011;26998;48.714;9.414;2023-11-18T11:51:46;3.55;;;2.40;;
41263;SDS011;26998;48.714;9.414;2023-11-18T11:54:26;4.00;;;2.45;;
41263;SDS011;26998;48.714;9.414;2023-11-18T11:56:56;3.80;;;2.40;;
41263;SDS011;26998;48.714;9.414;2023-11-18T12:02:09;2.42;;;2.17;;
41263;SDS011;26998;48.714;9.414;2023-11-18T12:04:37;3.47;;;2.20;;
41263;SDS011;26998;48.714;9.414;2023-11-18T12:07:04;2.65;;;1.85;;
41263;SDS011;26998;48.714;9.414;2023-11-18T12:09:44;1.90;;;1.80;;
41263;SDS011;26998;48.714;9.414;2023-11-18T12:12:17;3.65;;;1.70;;
41263;SDS011;26998;48.714;9.414;2023-11-18T12:14:49;2.78;;;2.28;;
41263;SDS011;26998;48.714;9.414;2023-11-18T12:17:19;3.03;;;2.13;;
41263;SDS011;26998;48.714;9.414;2023-11-18T12:19:46;2.72;;;1.42;;
41263;SDS011;26998;48.714;9.414;2023-11-18T12:22:20;1.40;;;1.30;;
41263;SDS011;26998;48.714;9.414;2023-11-18T12:35:25;3.63;;;2.47;;
41263;SDS011;26998;48.714;9.414;2023-11-18T12:37:59;2.50;;;2.25;;
41263;SDS011;26998;48.714;9.414;2023-11-18T12:43:22;2.75;;;2.55;;
41263;SDS011;26998;48.714;9.414;2023-11-18T12:48:56;3.05;;;2.28;;
41263;SDS011;26998;48.714;9.414;2023-11-18T12:51:23;2.67;;;2.13;;
41263;SDS011;26998;48.714;9.414;2023-11-18T12:53:50;3.65;;;2.78;;
41263;SDS011;26998;48.714;9.414;2023-11-18T12:56:17;2.05;;;1.88;;
41263;SDS011;26998;48.714;9.414;2023-11-18T12:58:46;5.68;;;2.03;;
41263;SDS011;26998;48.714;9.414;2023-11-18T13:01:13;4.00;;;2.85;;
41263;SDS011;26998;48.714;9.414;2023-11-18T13:03:40;2.90;;;2.10;;
41263;SDS011;26998;48.714;9.414;2023-11-18T13:06:08;3.90;;;2.65;;
41263;SDS011;26998;48.714;9.414;2023-11-18T13:08:35;5.57;;;2.67;;
41263;SDS011;26998;48.714;9.414;2023-11-18T13:11:03;5.50;;;2.20;;
41263;SDS011;26998;48.714;9.414;2023-11-18T13:13:33;3.95;;;2.47;;
41263;SDS011;26998;48.714;9.414;2023-11-18T13:16:02;2.58;;;2.10;;
41263;SDS011;26998;48.714;9.414;2023-11-18T13:18:40;4.20;;;2.58;;
41263;SDS011;26998;48.714;9.414;2023-11-18T13:21:14;2.47;;;1.98;;
41263;SDS011;26998;48.714;9.414;2023-11-18T13:23:44;6.03;;;2.78;;
41263;SDS011;26998;48.714;9.414;2023-11-18T13:26:12;2.72;;;1.88;;
41263;SDS011;26998;48.714;9.414;2023-11-18T13:28:39;2.65;;;2.28;;
41263;SDS011;26998;48.714;9.414;2023-11-18T13:31:06;3.28;;;2.70;;
41263;SDS011;26998;48.714;9.414;2023-11-18T13:33:35;3.85;;;2.40;;
41263;SDS011;26998;48.714;9.414;2023-11-18T13:36:04;2.97;;;2.22;;
41263;SDS011;26998;48.714;9.414;2023-11-18T13:38:32;2.30;;;1.98;;
41263;SDS011;26998;48.714;9.414;2023-11-18T13:40:59;3.38;;;2.10;;
41263;SDS011;26998;48.714;9.414;2023-11-18T13:43:25;3.20;;;2.40;;
41263;SDS011;26998;48.714;9.414;2023-11-18T13:45:52;4.93;;;3.40;;
41263;SDS011;26998;48.714;9.414;2023-11-18T13:48:20;6.20;;;3.13;;
41263;SDS011;26998;48.714;9.414;2023-11-18T13:50:47;6.88;;;3.92;;
41263;SDS011;26998;48.714;9.414;2023-11-18T13:53:14;6.93;;;3.15;;
41263;SDS011;26998;48.714;9.414;2023-11-18T13:55:41;4.65;;;2.63;;
41263;SDS011;26998;48.714;9.414;2023-11-18T13:58:07;2.90;;;2.38;;
41263;SDS011;26998;48.714;9.414;2023-11-18T14:00:34;3.30;;;2.58;;
41263;SDS011;26998;48.714;9.414;2023-11-18T14:03:01;3.00;;;2.28;;
41263;SDS011;26998;48.714;9.414;2023-11-18T14:05:28;2.97;;;2.35;;
41263;SDS011;26998;48.714;9.414;2023-11-18T14:07:55;3.85;;;2.75;;
41263;SDS011;26998;48.714;9.414;2023-11-18T14:10:22;2.67;;;2.00;;
41263;SDS011;26998;48.714;9.414;2023-11-18T14:15:44;3.83;;;2.28;;
41263;SDS011;26998;48.714;9.414;2023-11-18T14:18:11;4.88;;;2.90;;
41263;SDS011;26998;48.714;9.414;2023-11-18T14:20:38;2.45;;;2.13;;
41263;SDS011;26998;48.714;9.414;2023-11-18T14:23:04;3.65;;;2.65;;
41263;SDS011;26998;48.714;9.414;2023-11-18T14:25:31;2.35;;;2.10;;
41263;SDS011;26998;48.714;9.414;2023-11-18T14:28:00;2.22;;;1.90;;
41263;SDS011;26998;48.714;9.414;2023-11-18T14:30:26;1.83;;;1.45;;
41263;SDS011;26998;48.714;9.414;2023-11-18T14:32:53;1.50;;;1.38;;
41263;SDS011;26998;48.714;9.414;2023-11-18T14:35:19;2.25;;;1.45;;
41263;SDS011;26998;48.714;9.414;2023-11-18T14:37:46;1.52;;;1.42;;
41263;SDS011;26998;48.714;9.414;2023-11-18T14:40:14;1.48;;;1.20;;
41263;SDS011;26998;48.714;9.414;2023-11-18T14:42:42;2.30;;;1.33;;
41263;SDS011;26998;48.714;9.414;2023-11-18T14:45:12;1.50;;;1.40;;
41263;SDS011;26998;48.714;9.414;2023-11-18T14:47:40;1.55;;;0.98;;
41263;SDS011;26998;48.714;9.414;2023-11-18T14:50:08;2.92;;;1.92;;
41263;SDS011;26998;48.714;9.414;2023-11-18T14:52:36;5.90;;;1.67;;
41263;SDS011;26998;48.714;9.414;2023-11-18T14:55:03;2.60;;;1.38;;
41263;SDS011;26998;48.714;9.414;2023-11-18T14:57:30;2.83;;;2.00;;
41263;SDS011;26998;48.714;9.414;2023-11-18T14:59:57;2.00;;;1.80;;
41263;SDS011;26998;48.714;9.414;2023-11-18T15:02:24;2.97;;;1.25;;
41263;SDS011;26998;48.714;9.414;2023-11-18T15:04:50;1.02;;;0.80;;
41263;SDS011;26998;48.714;9.414;2023-11-18T15:07:17;1.63;;;1.30;;
41263;SDS011;26998;48.714;9.414;2023-11-18T15:09:43;5.63;;;1.20;;
41263;SDS011;26998;48.714;9.414;2023-11-18T15:12:10;1.20;;;1.10;;
41263;SDS011;26998;48.714;9.414;2023-11-18T15:14:39;1.45;;;1.20;;
41263;SDS011;26998;48.714;9.414;2023-11-18T15:17:06;1.35;;;1.25;;